»·PEaware :: USC243 KLAS-KMRY

USC243 :: KLAS-KMRY

FLIGHT INFORMATION

Flight Status: Arrived
Operator: Unknown
More flights by this operator :: More flights under this callsign
Pilot: Andy P. (22680)
Aircraft: GATES LEARJET LEARJET 35/36
(LJ35)
More flights by this aircraft type
Origin: KLAS McCarran Intl
United States
Destination: KMRY Monterey Peninsula
United States
More flights between these airports :: More routes between these airports
Route: SHEAD1 KENNO BIH PXN SNS
File this flight plan on PilotEdge
Remarks:
Altitude:
(Current/Filed)
34,000ft
Speed:
(Current/Filed)
465kts
Departed: 28-May-19 11:44 AM
Arrived: 28-May-19 12:49 PM
Distance/Time
Traveled:
325nm/1:05
Distance/Time
To Go:
Arrived

Flight Plot

Page will automatically refresh every two minutes.

Flight plan parsing failed; only flown route is shown


Map Options




Map Legend


Flown Route
Filed Route
Departure Airport
Arrival Airport
Navaid (VOR, NDB)
Fix

Horizontal Profiles

Position Reports

Time Latitude Longitude Heading Altitude Ground
Speed
28-May-19 11:28 36.080700 -115.125661 137 2184ft 0kts
28-May-19 11:29 36.080700 -115.125661 137 2184ft 0kts
28-May-19 11:30 36.080700 -115.125661 137 2184ft 0kts
28-May-19 11:31 36.080700 -115.125661 137 2184ft 0kts
28-May-19 11:32 36.080700 -115.125661 137 2184ft 0kts
28-May-19 11:33 36.080700 -115.125661 137 2184ft 0kts
28-May-19 11:34 36.080700 -115.125661 137 2184ft 0kts
28-May-19 11:35 36.080700 -115.125661 137 2184ft 0kts
28-May-19 11:36 36.080700 -115.125661 137 2184ft 0kts
28-May-19 11:37 36.080700 -115.125661 137 2184ft 0kts
28-May-19 11:38 36.080700 -115.125661 137 2184ft 0kts
28-May-19 11:39 36.079883 -115.126264 203 2184ft 10kts
28-May-19 11:40 36.078294 -115.123835 89 2184ft 8kts
28-May-19 11:41 36.077649 -115.121760 131 2184ft 3kts
28-May-19 11:42 36.076843 -115.121237 180 2184ft 11kts
28-May-19 11:43 36.076611 -115.158364 270 3105ft 203kts
28-May-19 11:44 36.076634 -115.229321 267 5612ft 204kts
28-May-19 11:45 36.036302 -115.275511 193 6827ft 230kts
28-May-19 11:46 35.972407 -115.300870 208 8184ft 274kts
28-May-19 11:47 35.914837 -115.371282 225 11982ft 333kts
28-May-19 11:48 35.882394 -115.483714 278 15405ft 395kts
28-May-19 11:49 35.891792 -115.620905 271 19428ft 415kts
28-May-19 11:50 35.893271 -115.770877 274 22009ft 445kts
28-May-19 11:51 35.895368 -115.927410 271 24568ft 465kts
28-May-19 11:52 35.958579 -116.060020 325 26951ft 480kts
28-May-19 11:53 36.061564 -116.162752 319 30266ft 461kts
28-May-19 11:55 36.156600 -116.271865 317 32501ft 460kts
28-May-19 11:56 36.247576 -116.377342 316 33985ft 445kts
28-May-19 11:57 36.339389 -116.484425 317 33981ft 454kts
28-May-19 11:58 36.430716 -116.590929 317 33972ft 447kts
28-May-19 11:59 36.521172 -116.696772 317 33977ft 448kts
28-May-19 12:00 36.620749 -116.789937 328 33982ft 450kts
28-May-19 12:01 36.727532 -116.872052 329 33805ft 455kts
28-May-19 12:02 36.834479 -116.953603 329 33603ft 447kts
28-May-19 12:03 36.940777 -117.035148 330 33362ft 439kts
28-May-19 12:04 37.045526 -117.115418 330 32625ft 452kts
28-May-19 12:05 37.149977 -117.195850 330 33699ft 420kts
28-May-19 12:06 37.248596 -117.271946 330 34033ft 417kts
28-May-19 12:07 37.320349 -117.381610 279 34034ft 439kts
28-May-19 12:08 37.319900 -117.538649 273 34033ft 457kts
28-May-19 12:09 37.328695 -117.700140 276 34034ft 469kts
28-May-19 12:10 37.340808 -117.864757 277 34036ft 475kts
28-May-19 12:11 37.352899 -118.029659 277 34036ft 472kts
28-May-19 12:12 37.364716 -118.193323 277 34035ft 469kts
28-May-19 12:12 37.374343 -118.329000 277 34035ft 467kts
28-May-19 12:14 37.340729 -118.514910 252 34042ft 473kts
28-May-19 12:15 37.297538 -118.670456 254 34074ft 470kts
28-May-19 12:15 37.262940 -118.799338 254 33405ft 464kts
28-May-19 12:16 37.221543 -118.954111 253 31144ft 471kts
28-May-19 12:18 37.172525 -119.136435 253 28583ft 469kts
28-May-19 12:18 37.137565 -119.265765 252 26920ft 473kts
28-May-19 12:19 37.094951 -119.422627 252 24926ft 477kts
28-May-19 12:21 37.044898 -119.605474 252 22593ft 467kts
28-May-19 12:21 37.010116 -119.731914 252 20925ft 461kts
28-May-19 12:22 36.968670 -119.881707 252 20086ft 446kts
28-May-19 12:23 36.928317 -120.026856 253 19969ft 452kts
28-May-19 12:24 36.888557 -120.168860 253 17973ft 421kts
28-May-19 12:25 36.850062 -120.305793 253 15973ft 414kts
28-May-19 12:26 36.811540 -120.442164 253 13958ft 417kts
28-May-19 12:27 36.773279 -120.576769 253 11961ft 407kts
28-May-19 12:28 36.739457 -120.694981 253 10072ft 311kts
28-May-19 12:29 36.715588 -120.787816 263 9956ft 275kts
28-May-19 12:30 36.709181 -120.885434 269 9968ft 298kts
28-May-19 12:31 36.702618 -120.993916 269 9966ft 324kts
28-May-19 12:32 36.695569 -121.108469 268 9967ft 337kts
28-May-19 12:33 36.688378 -121.222877 269 9958ft 308kts
28-May-19 12:34 36.682104 -121.321646 269 9962ft 270kts
28-May-19 12:35 36.676262 -121.413321 270 9969ft 275kts
28-May-19 12:36 36.669969 -121.510331 269 9345ft 285kts
28-May-19 12:37 36.663657 -121.606012 269 7831ft 270kts
28-May-19 12:38 36.661131 -121.697940 273 6326ft 262kts
28-May-19 12:39 36.659968 -121.788321 273 4833ft 260kts
28-May-19 12:40 36.667892 -121.876205 290 3337ft 252kts
28-May-19 12:41 36.690304 -121.953566 292 2315ft 205kts
28-May-19 12:42 36.707617 -122.010254 293 2300ft 163kts
28-May-19 12:43 36.686467 -122.043419 154 2307ft 174kts
28-May-19 12:44 36.646459 -122.009455 138 2307ft 176kts
28-May-19 12:45 36.625068 -121.958325 108 1946ft 155kts
28-May-19 12:46 36.610313 -121.913375 111 1201ft 138kts
28-May-19 12:47 36.595797 -121.870553 113 526ft 128kts
28-May-19 12:48 36.586440 -121.842786 114 208ft 36kts
28-May-19 12:49 36.585889 -121.843990 291 208ft 18kts
28-May-19 12:50 36.588605 -121.851620 293 208ft 30kts
28-May-19 12:51 36.589120 -121.858140 331 208ft 9kts
28-May-19 12:52 36.589287 -121.858205 341 208ft 0kts

Navigation Log

Ident Type
Flight plan parsing failed, navigation log unavailable